sensor_id;sensor_type;location;lat;lon;timestamp;P1;durP1;ratioP1;P2;durP2;ratioP2
18076;SDS011;9165;45.714;11.362;2023-11-21T00:02:24;16.00;;;10.00;;
18076;SDS011;9165;45.714;11.362;2023-11-21T00:04:52;16.67;;;10.57;;
18076;SDS011;9165;45.714;11.362;2023-11-21T00:07:18;15.60;;;9.87;;
18076;SDS011;9165;45.714;11.362;2023-11-21T00:09:46;16.97;;;9.73;;
18076;SDS011;9165;45.714;11.362;2023-11-21T00:12:13;19.33;;;10.33;;
18076;SDS011;9165;45.714;11.362;2023-11-21T00:14:41;15.73;;;9.90;;
18076;SDS011;9165;45.714;11.362;2023-11-21T00:17:07;14.00;;;10.23;;
18076;SDS011;9165;45.714;11.362;2023-11-21T00:19:34;14.30;;;9.77;;
18076;SDS011;9165;45.714;11.362;2023-11-21T00:22:00;15.57;;;10.23;;
18076;SDS011;9165;45.714;11.362;2023-11-21T00:24:27;15.20;;;10.13;;
18076;SDS011;9165;45.714;11.362;2023-11-21T00:26:53;16.17;;;10.10;;
18076;SDS011;9165;45.714;11.362;2023-11-21T00:29:20;16.50;;;10.43;;
18076;SDS011;9165;45.714;11.362;2023-11-21T00:31:48;15.60;;;10.93;;
18076;SDS011;9165;45.714;11.362;2023-11-21T00:34:14;14.23;;;9.67;;
18076;SDS011;9165;45.714;11.362;2023-11-21T00:36:41;15.10;;;10.03;;
18076;SDS011;9165;45.714;11.362;2023-11-21T00:39:08;15.23;;;9.63;;
18076;SDS011;9165;45.714;11.362;2023-11-21T00:41:34;17.57;;;10.83;;
18076;SDS011;9165;45.714;11.362;2023-11-21T00:44:01;20.53;;;11.23;;
18076;SDS011;9165;45.714;11.362;2023-11-21T00:46:28;15.30;;;10.23;;
18076;SDS011;9165;45.714;11.362;2023-11-21T00:48:56;12.63;;;9.40;;
18076;SDS011;9165;45.714;11.362;2023-11-21T00:51:22;15.57;;;9.87;;
18076;SDS011;9165;45.714;11.362;2023-11-21T00:53:49;14.40;;;10.67;;
18076;SDS011;9165;45.714;11.362;2023-11-21T00:56:16;15.83;;;10.17;;
18076;SDS011;9165;45.714;11.362;2023-11-21T00:58:42;14.83;;;10.33;;
18076;SDS011;9165;45.714;11.362;2023-11-21T01:01:11;14.60;;;10.63;;
18076;SDS011;9165;45.714;11.362;2023-11-21T01:03:38;15.03;;;10.77;;
18076;SDS011;9165;45.714;11.362;2023-11-21T01:06:06;15.33;;;9.73;;
18076;SDS011;9165;45.714;11.362;2023-11-21T01:08:34;17.93;;;11.20;;
18076;SDS011;9165;45.714;11.362;2023-11-21T01:11:01;15.63;;;8.93;;
18076;SDS011;9165;45.714;11.362;2023-11-21T01:13:27;18.87;;;10.83;;
18076;SDS011;9165;45.714;11.362;2023-11-21T01:15:54;14.97;;;9.80;;
18076;SDS011;9165;45.714;11.362;2023-11-21T01:18:21;14.30;;;9.60;;
18076;SDS011;9165;45.714;11.362;2023-11-21T01:20:50;15.17;;;9.50;;
18076;SDS011;9165;45.714;11.362;2023-11-21T01:23:19;15.83;;;10.87;;
18076;SDS011;9165;45.714;11.362;2023-11-21T01:25:45;16.13;;;9.93;;
18076;SDS011;9165;45.714;11.362;2023-11-21T01:28:12;16.87;;;10.53;;
18076;SDS011;9165;45.714;11.362;2023-11-21T01:30:38;14.53;;;9.80;;
18076;SDS011;9165;45.714;11.362;2023-11-21T01:33:05;14.03;;;9.77;;
18076;SDS011;9165;45.714;11.362;2023-11-21T01:35:32;17.63;;;10.50;;
18076;SDS011;9165;45.714;11.362;2023-11-21T01:37:59;19.17;;;11.10;;
18076;SDS011;9165;45.714;11.362;2023-11-21T01:40:27;18.27;;;12.10;;
18076;SDS011;9165;45.714;11.362;2023-11-21T01:42:54;16.00;;;10.33;;
18076;SDS011;9165;45.714;11.362;2023-11-21T01:45:21;14.87;;;9.73;;
18076;SDS011;9165;45.714;11.362;2023-11-21T01:47:47;13.83;;;10.07;;
18076;SDS011;9165;45.714;11.362;2023-11-21T01:50:15;15.20;;;10.70;;
18076;SDS011;9165;45.714;11.362;2023-11-21T01:52:42;18.10;;;10.00;;
18076;SDS011;9165;45.714;11.362;2023-11-21T01:55:08;14.13;;;10.47;;
18076;SDS011;9165;45.714;11.362;2023-11-21T01:57:36;12.97;;;9.73;;
18076;SDS011;9165;45.714;11.362;2023-11-21T02:00:04;15.50;;;10.80;;
18076;SDS011;9165;45.714;11.362;2023-11-21T02:02:41;14.03;;;9.57;;
18076;SDS011;9165;45.714;11.362;2023-11-21T02:05:07;15.13;;;10.07;;
18076;SDS011;9165;45.714;11.362;2023-11-21T02:07:34;12.37;;;8.97;;
18076;SDS011;9165;45.714;11.362;2023-11-21T02:10:02;18.43;;;9.30;;
18076;SDS011;9165;45.714;11.362;2023-11-21T02:12:29;12.23;;;8.60;;
18076;SDS011;9165;45.714;11.362;2023-11-21T02:14:57;15.80;;;9.17;;
18076;SDS011;9165;45.714;11.362;2023-11-21T02:17:24;12.80;;;9.57;;
18076;SDS011;9165;45.714;11.362;2023-11-21T02:19:52;13.80;;;8.57;;
18076;SDS011;9165;45.714;11.362;2023-11-21T02:22:19;14.07;;;9.27;;
18076;SDS011;9165;45.714;11.362;2023-11-21T02:24:47;14.93;;;9.10;;
18076;SDS011;9165;45.714;11.362;2023-11-21T02:27:13;13.70;;;8.63;;
18076;SDS011;9165;45.714;11.362;2023-11-21T02:29:42;13.17;;;8.60;;
18076;SDS011;9165;45.714;11.362;2023-11-21T02:32:08;14.53;;;8.03;;
18076;SDS011;9165;45.714;11.362;2023-11-21T02:34:35;13.80;;;8.33;;
18076;SDS011;9165;45.714;11.362;2023-11-21T02:37:03;16.77;;;8.90;;
18076;SDS011;9165;45.714;11.362;2023-11-21T02:39:31;15.23;;;9.27;;
18076;SDS011;9165;45.714;11.362;2023-11-21T02:41:58;15.10;;;8.57;;
18076;SDS011;9165;45.714;11.362;2023-11-21T02:44:25;12.10;;;7.80;;
18076;SDS011;9165;45.714;11.362;2023-11-21T02:46:52;13.70;;;9.27;;
18076;SDS011;9165;45.714;11.362;2023-11-21T02:49:19;9.70;;;7.43;;
18076;SDS011;9165;45.714;11.362;2023-11-21T02:51:45;13.03;;;8.50;;
18076;SDS011;9165;45.714;11.362;2023-11-21T02:54:12;13.97;;;7.90;;
18076;SDS011;9165;45.714;11.362;2023-11-21T02:56:38;10.33;;;7.40;;
18076;SDS011;9165;45.714;11.362;2023-11-21T02:59:07;10.33;;;7.40;;
18076;SDS011;9165;45.714;11.362;2023-11-21T03:01:34;12.20;;;7.90;;
18076;SDS011;9165;45.714;11.362;2023-11-21T03:04:00;9.93;;;6.60;;
18076;SDS011;9165;45.714;11.362;2023-11-21T03:06:27;16.97;;;7.53;;
18076;SDS011;9165;45.714;11.362;2023-11-21T03:08:54;10.13;;;6.70;;
18076;SDS011;9165;45.714;11.362;2023-11-21T03:11:20;13.40;;;8.33;;
18076;SDS011;9165;45.714;11.362;2023-11-21T03:13:47;9.20;;;6.47;;
18076;SDS011;9165;45.714;11.362;2023-11-21T03:16:15;12.37;;;8.03;;
18076;SDS011;9165;45.714;11.362;2023-11-21T03:18:42;11.67;;;7.40;;
18076;SDS011;9165;45.714;11.362;2023-11-21T03:21:09;11.17;;;7.43;;
18076;SDS011;9165;45.714;11.362;2023-11-21T03:23:36;10.83;;;7.13;;
18076;SDS011;9165;45.714;11.362;2023-11-21T03:26:03;10.67;;;6.43;;
18076;SDS011;9165;45.714;11.362;2023-11-21T03:28:29;8.43;;;6.80;;
18076;SDS011;9165;45.714;11.362;2023-11-21T03:30:56;15.37;;;7.13;;
18076;SDS011;9165;45.714;11.362;2023-11-21T03:33:24;11.60;;;7.03;;
18076;SDS011;9165;45.714;11.362;2023-11-21T03:35:51;12.10;;;7.30;;
18076;SDS011;9165;45.714;11.362;2023-11-21T03:38:18;10.50;;;7.23;;
18076;SDS011;9165;45.714;11.362;2023-11-21T03:40:44;13.33;;;7.33;;
18076;SDS011;9165;45.714;11.362;2023-11-21T03:43:11;11.10;;;7.17;;
18076;SDS011;9165;45.714;11.362;2023-11-21T03:45:37;10.70;;;7.10;;
18076;SDS011;9165;45.714;11.362;2023-11-21T03:48:05;8.73;;;6.30;;
18076;SDS011;9165;45.714;11.362;2023-11-21T03:50:33;13.40;;;7.17;;
18076;SDS011;9165;45.714;11.362;2023-11-21T03:53:00;10.63;;;6.87;;
18076;SDS011;9165;45.714;11.362;2023-11-21T03:55:26;10.03;;;6.57;;
18076;SDS011;9165;45.714;11.362;2023-11-21T03:57:53;11.97;;;6.70;;
18076;SDS011;9165;45.714;11.362;2023-11-21T04:00:20;9.53;;;5.77;;
18076;SDS011;9165;45.714;11.362;2023-11-21T04:02:47;10.50;;;6.83;;
18076;SDS011;9165;45.714;11.362;2023-11-21T04:05:13;8.00;;;6.30;;
18076;SDS011;9165;45.714;11.362;2023-11-21T04:07:41;11.90;;;6.77;;
18076;SDS011;9165;45.714;11.362;2023-11-21T04:10:08;9.57;;;6.13;;
18076;SDS011;9165;45.714;11.362;2023-11-21T04:12:37;8.67;;;6.30;;
18076;SDS011;9165;45.714;11.362;2023-11-21T04:15:04;10.23;;;7.00;;
18076;SDS011;9165;45.714;11.362;2023-11-21T04:17:33;10.93;;;6.50;;
18076;SDS011;9165;45.714;11.362;2023-11-21T04:20:01;10.90;;;6.03;;
18076;SDS011;9165;45.714;11.362;2023-11-21T04:22:28;9.97;;;6.17;;
18076;SDS011;9165;45.714;11.362;2023-11-21T04:24:56;10.17;;;6.33;;
18076;SDS011;9165;45.714;11.362;2023-11-21T04:27:22;7.23;;;5.23;;
18076;SDS011;9165;45.714;11.362;2023-11-21T04:29:49;9.37;;;6.03;;
18076;SDS011;9165;45.714;11.362;2023-11-21T04:32:16;9.67;;;5.17;;
18076;SDS011;9165;45.714;11.362;2023-11-21T04:34:42;9.13;;;5.93;;
18076;SDS011;9165;45.714;11.362;2023-11-21T04:37:09;8.63;;;5.83;;
18076;SDS011;9165;45.714;11.362;2023-11-21T04:39:36;8.70;;;5.50;;
18076;SDS011;9165;45.714;11.362;2023-11-21T04:42:04;8.13;;;5.60;;
18076;SDS011;9165;45.714;11.362;2023-11-21T04:44:30;9.93;;;5.27;;
18076;SDS011;9165;45.714;11.362;2023-11-21T04:46:57;8.53;;;5.67;;
18076;SDS011;9165;45.714;11.362;2023-11-21T04:49:23;10.43;;;6.13;;
18076;SDS011;9165;45.714;11.362;2023-11-21T04:51:50;6.80;;;5.07;;
18076;SDS011;9165;45.714;11.362;2023-11-21T04:54:17;7.60;;;4.87;;
18076;SDS011;9165;45.714;11.362;2023-11-21T04:56:43;7.93;;;5.37;;
18076;SDS011;9165;45.714;11.362;2023-11-21T04:59:12;12.60;;;4.83;;
18076;SDS011;9165;45.714;11.362;2023-11-21T05:01:38;8.10;;;5.80;;
18076;SDS011;9165;45.714;11.362;2023-11-21T05:04:05;8.83;;;5.17;;
18076;SDS011;9165;45.714;11.362;2023-11-21T05:06:33;8.17;;;5.40;;
18076;SDS011;9165;45.714;11.362;2023-11-21T05:09:00;8.33;;;5.17;;
18076;SDS011;9165;45.714;11.362;2023-11-21T05:11:27;7.37;;;4.83;;
18076;SDS011;9165;45.714;11.362;2023-11-21T05:13:54;7.13;;;4.47;;
18076;SDS011;9165;45.714;11.362;2023-11-21T05:16:25;10.40;;;5.50;;
18076;SDS011;9165;45.714;11.362;2023-11-21T05:18:52;8.57;;;5.00;;
18076;SDS011;9165;45.714;11.362;2023-11-21T05:21:21;7.50;;;5.10;;
18076;SDS011;9165;45.714;11.362;2023-11-21T05:23:48;7.40;;;4.93;;
18076;SDS011;9165;45.714;11.362;2023-11-21T05:26:15;10.17;;;5.47;;
18076;SDS011;9165;45.714;11.362;2023-11-21T05:28:41;6.97;;;5.40;;
18076;SDS011;9165;45.714;11.362;2023-11-21T05:31:08;9.57;;;5.27;;
18076;SDS011;9165;45.714;11.362;2023-11-21T05:33:37;7.33;;;5.20;;
18076;SDS011;9165;45.714;11.362;2023-11-21T05:36:04;8.97;;;4.83;;
18076;SDS011;9165;45.714;11.362;2023-11-21T05:38:33;9.03;;;4.53;;
18076;SDS011;9165;45.714;11.362;2023-11-21T05:41:00;9.47;;;5.63;;
18076;SDS011;9165;45.714;11.362;2023-11-21T05:43:26;5.53;;;4.13;;
18076;SDS011;9165;45.714;11.362;2023-11-21T05:45:54;6.67;;;4.67;;
18076;SDS011;9165;45.714;11.362;2023-11-21T05:48:21;5.83;;;4.57;;
18076;SDS011;9165;45.714;11.362;2023-11-21T05:50:49;6.80;;;4.80;;
18076;SDS011;9165;45.714;11.362;2023-11-21T05:53:16;8.27;;;5.47;;
18076;SDS011;9165;45.714;11.362;2023-11-21T05:55:42;9.00;;;4.83;;
18076;SDS011;9165;45.714;11.362;2023-11-21T05:58:09;7.17;;;4.90;;
18076;SDS011;9165;45.714;11.362;2023-11-21T06:00:35;7.60;;;4.90;;
18076;SDS011;9165;45.714;11.362;2023-11-21T06:03:02;9.73;;;5.53;;
18076;SDS011;9165;45.714;11.362;2023-11-21T06:05:32;10.70;;;5.83;;
18076;SDS011;9165;45.714;11.362;2023-11-21T06:08:00;8.03;;;5.67;;
18076;SDS011;9165;45.714;11.362;2023-11-21T06:10:27;6.10;;;4.57;;
18076;SDS011;9165;45.714;11.362;2023-11-21T06:12:53;9.17;;;5.80;;
18076;SDS011;9165;45.714;11.362;2023-11-21T06:15:20;5.97;;;4.70;;
18076;SDS011;9165;45.714;11.362;2023-11-21T06:17:48;10.13;;;5.57;;
18076;SDS011;9165;45.714;11.362;2023-11-21T06:20:18;8.03;;;4.97;;
18076;SDS011;9165;45.714;11.362;2023-11-21T06:22:45;13.00;;;4.73;;
18076;SDS011;9165;45.714;11.362;2023-11-21T06:25:13;6.73;;;4.50;;
18076;SDS011;9165;45.714;11.362;2023-11-21T06:27:41;6.70;;;4.67;;
18076;SDS011;9165;45.714;11.362;2023-11-21T06:30:08;8.67;;;4.93;;
18076;SDS011;9165;45.714;11.362;2023-11-21T06:32:35;9.47;;;5.40;;
18076;SDS011;9165;45.714;11.362;2023-11-21T06:35:01;9.53;;;5.47;;
18076;SDS011;9165;45.714;11.362;2023-11-21T06:37:29;9.07;;;5.37;;
18076;SDS011;9165;45.714;11.362;2023-11-21T06:39:55;10.07;;;6.10;;
18076;SDS011;9165;45.714;11.362;2023-11-21T06:42:24;8.30;;;5.53;;
18076;SDS011;9165;45.714;11.362;2023-11-21T06:44:51;11.73;;;5.93;;
18076;SDS011;9165;45.714;11.362;2023-11-21T06:47:19;6.73;;;5.90;;
18076;SDS011;9165;45.714;11.362;2023-11-21T06:49:46;11.50;;;6.53;;
18076;SDS011;9165;45.714;11.362;2023-11-21T06:52:14;16.30;;;5.97;;
18076;SDS011;9165;45.714;11.362;2023-11-21T06:54:40;10.17;;;6.43;;
18076;SDS011;9165;45.714;11.362;2023-11-21T06:57:07;9.33;;;6.60;;
18076;SDS011;9165;45.714;11.362;2023-11-21T06:59:35;8.60;;;6.50;;
18076;SDS011;9165;45.714;11.362;2023-11-21T07:02:02;8.47;;;5.50;;
18076;SDS011;9165;45.714;11.362;2023-11-21T07:04:29;14.50;;;5.67;;
18076;SDS011;9165;45.714;11.362;2023-11-21T07:06:56;9.50;;;5.73;;
18076;SDS011;9165;45.714;11.362;2023-11-21T07:09:23;12.30;;;6.37;;
18076;SDS011;9165;45.714;11.362;2023-11-21T07:11:51;10.73;;;7.00;;
18076;SDS011;9165;45.714;11.362;2023-11-21T07:14:17;11.53;;;7.33;;
18076;SDS011;9165;45.714;11.362;2023-11-21T07:16:46;9.53;;;5.80;;
18076;SDS011;9165;45.714;11.362;2023-11-21T07:19:13;8.57;;;5.73;;
18076;SDS011;9165;45.714;11.362;2023-11-21T07:21:39;7.70;;;5.33;;
18076;SDS011;9165;45.714;11.362;2023-11-21T07:24:07;9.50;;;5.83;;
18076;SDS011;9165;45.714;11.362;2023-11-21T07:26:34;11.00;;;6.67;;
18076;SDS011;9165;45.714;11.362;2023-11-21T07:29:01;11.17;;;5.80;;
18076;SDS011;9165;45.714;11.362;2023-11-21T07:31:28;16.30;;;6.20;;
18076;SDS011;9165;45.714;11.362;2023-11-21T07:33:56;12.90;;;6.07;;
18076;SDS011;9165;45.714;11.362;2023-11-21T07:36:23;9.50;;;5.70;;
18076;SDS011;9165;45.714;11.362;2023-11-21T07:38:50;8.23;;;5.13;;
18076;SDS011;9165;45.714;11.362;2023-11-21T07:41:17;10.87;;;5.83;;
18076;SDS011;9165;45.714;11.362;2023-11-21T07:43:43;8.43;;;5.40;;
18076;SDS011;9165;45.714;11.362;2023-11-21T07:46:10;11.17;;;6.40;;
18076;SDS011;9165;45.714;11.362;2023-11-21T07:48:37;10.20;;;5.03;;
18076;SDS011;9165;45.714;11.362;2023-11-21T07:51:06;7.17;;;5.50;;
18076;SDS011;9165;45.714;11.362;2023-11-21T07:53:33;7.47;;;5.20;;
18076;SDS011;9165;45.714;11.362;2023-11-21T07:56:02;9.00;;;5.93;;
18076;SDS011;9165;45.714;11.362;2023-11-21T07:58:29;8.13;;;5.40;;
18076;SDS011;9165;45.714;11.362;2023-11-21T08:00:56;8.60;;;5.90;;
18076;SDS011;9165;45.714;11.362;2023-11-21T08:03:22;8.37;;;6.37;;
18076;SDS011;9165;45.714;11.362;2023-11-21T08:05:49;9.50;;;6.67;;
18076;SDS011;9165;45.714;11.362;2023-11-21T08:08:17;11.80;;;6.33;;
18076;SDS011;9165;45.714;11.362;2023-11-21T08:10:43;18.60;;;7.37;;
18076;SDS011;9165;45.714;11.362;2023-11-21T08:13:13;11.03;;;6.60;;
18076;SDS011;9165;45.714;11.362;2023-11-21T08:15:41;15.87;;;7.77;;
18076;SDS011;9165;45.714;11.362;2023-11-21T08:18:10;10.20;;;6.60;;
18076;SDS011;9165;45.714;11.362;2023-11-21T08:20:37;19.97;;;7.80;;
18076;SDS011;9165;45.714;11.362;2023-11-21T08:23:05;10.57;;;6.87;;
18076;SDS011;9165;45.714;11.362;2023-11-21T08:25:32;8.30;;;5.77;;
18076;SDS011;9165;45.714;11.362;2023-11-21T08:28:00;13.90;;;6.73;;
18076;SDS011;9165;45.714;11.362;2023-11-21T08:30:26;12.37;;;6.43;;
18076;SDS011;9165;45.714;11.362;2023-11-21T14:11:33;10.87;;;6.53;;
18076;SDS011;9165;45.714;11.362;2023-11-21T14:14:05;6.63;;;5.07;;
18076;SDS011;9165;45.714;11.362;2023-11-21T14:16:31;6.73;;;4.87;;
18076;SDS011;9165;45.714;11.362;2023-11-21T14:18:58;7.43;;;5.00;;
18076;SDS011;9165;45.714;11.362;2023-11-21T14:21:34;5.67;;;4.10;;
18076;SDS011;9165;45.714;11.362;2023-11-21T14:24:01;7.53;;;4.73;;
18076;SDS011;9165;45.714;11.362;2023-11-21T14:26:28;8.20;;;5.20;;
18076;SDS011;9165;45.714;11.362;2023-11-21T14:28:57;10.90;;;5.43;;
18076;SDS011;9165;45.714;11.362;2023-11-21T14:31:24;8.30;;;4.90;;
18076;SDS011;9165;45.714;11.362;2023-11-21T14:33:52;6.57;;;5.03;;
18076;SDS011;9165;45.714;11.362;2023-11-21T14:36:19;14.20;;;6.37;;
18076;SDS011;9165;45.714;11.362;2023-11-21T14:38:46;6.77;;;4.67;;
18076;SDS011;9165;45.714;11.362;2023-11-21T14:41:13;6.57;;;5.27;;
18076;SDS011;9165;45.714;11.362;2023-11-21T14:43:41;7.90;;;4.93;;
18076;SDS011;9165;45.714;11.362;2023-11-21T14:46:12;8.90;;;5.07;;
18076;SDS011;9165;45.714;11.362;2023-11-21T14:48:42;8.37;;;4.50;;
18076;SDS011;9165;45.714;11.362;2023-11-21T14:51:13;7.40;;;5.03;;
18076;SDS011;9165;45.714;11.362;2023-11-21T14:53:54;7.77;;;6.07;;
18076;SDS011;9165;45.714;11.362;2023-11-21T14:56:25;22.00;;;11.47;;
18076;SDS011;9165;45.714;11.362;2023-11-21T14:58:56;11.00;;;6.87;;
18076;SDS011;9165;45.714;11.362;2023-11-21T15:01:24;8.53;;;6.10;;
18076;SDS011;9165;45.714;11.362;2023-11-21T15:04:08;10.37;;;5.63;;
18076;SDS011;9165;45.714;11.362;2023-11-21T15:06:40;6.80;;;4.90;;
18076;SDS011;9165;45.714;11.362;2023-11-21T15:09:08;7.50;;;4.97;;
18076;SDS011;9165;45.714;11.362;2023-11-21T15:12:00;8.20;;;5.20;;
18076;SDS011;9165;45.714;11.362;2023-11-21T15:14:45;6.80;;;4.63;;
18076;SDS011;9165;45.714;11.362;2023-11-21T15:17:20;8.97;;;5.40;;
18076;SDS011;9165;45.714;11.362;2023-11-21T15:19:51;9.70;;;6.50;;
18076;SDS011;9165;45.714;11.362;2023-11-21T15:22:18;10.00;;;6.00;;
18076;SDS011;9165;45.714;11.362;2023-11-21T15:24:45;12.87;;;6.70;;
18076;SDS011;9165;45.714;11.362;2023-11-21T15:27:14;9.27;;;6.80;;
18076;SDS011;9165;45.714;11.362;2023-11-21T15:29:41;12.33;;;6.80;;
18076;SDS011;9165;45.714;11.362;2023-11-21T15:32:09;8.20;;;6.17;;
18076;SDS011;9165;45.714;11.362;2023-11-21T15:34:37;8.03;;;5.73;;
18076;SDS011;9165;45.714;11.362;2023-11-21T15:37:05;9.87;;;6.83;;
18076;SDS011;9165;45.714;11.362;2023-11-21T15:39:36;14.20;;;7.80;;
18076;SDS011;9165;45.714;11.362;2023-11-21T15:42:03;11.37;;;6.50;;
18076;SDS011;9165;45.714;11.362;2023-11-21T15:44:32;13.23;;;8.77;;
18076;SDS011;9165;45.714;11.362;2023-11-21T15:46:58;13.23;;;8.03;;
18076;SDS011;9165;45.714;11.362;2023-11-21T15:49:25;16.90;;;9.83;;
18076;SDS011;9165;45.714;11.362;2023-11-21T15:51:56;14.63;;;8.60;;
18076;SDS011;9165;45.714;11.362;2023-11-21T15:54:25;15.57;;;10.53;;
18076;SDS011;9165;45.714;11.362;2023-11-21T15:56:52;19.63;;;12.10;;
18076;SDS011;9165;45.714;11.362;2023-11-21T15:59:21;16.30;;;10.80;;
18076;SDS011;9165;45.714;11.362;2023-11-21T16:01:49;16.83;;;11.63;;
18076;SDS011;9165;45.714;11.362;2023-11-21T16:04:16;14.57;;;7.47;;
18076;SDS011;9165;45.714;11.362;2023-11-21T16:06:44;15.93;;;8.63;;
18076;SDS011;9165;45.714;11.362;2023-11-21T16:09:13;14.77;;;8.87;;
18076;SDS011;9165;45.714;11.362;2023-11-21T16:11:47;14.07;;;9.50;;
18076;SDS011;9165;45.714;11.362;2023-11-21T16:14:14;23.97;;;13.23;;
18076;SDS011;9165;45.714;11.362;2023-11-21T16:16:44;20.80;;;11.60;;
18076;SDS011;9165;45.714;11.362;2023-11-21T16:19:11;16.30;;;11.50;;
18076;SDS011;9165;45.714;11.362;2023-11-21T16:21:38;19.30;;;11.63;;
18076;SDS011;9165;45.714;11.362;2023-11-21T16:24:06;16.63;;;11.30;;
18076;SDS011;9165;45.714;11.362;2023-11-21T16:26:38;19.43;;;10.97;;
18076;SDS011;9165;45.714;11.362;2023-11-21T16:29:10;19.23;;;10.70;;
18076;SDS011;9165;45.714;11.362;2023-11-21T16:31:38;16.03;;;10.47;;
18076;SDS011;9165;45.714;11.362;2023-11-21T16:34:10;19.57;;;10.87;;
18076;SDS011;9165;45.714;11.362;2023-11-21T16:36:37;26.00;;;15.40;;
18076;SDS011;9165;45.714;11.362;2023-11-21T16:39:04;25.07;;;14.40;;
18076;SDS011;9165;45.714;11.362;2023-11-21T16:41:30;19.23;;;12.17;;
18076;SDS011;9165;45.714;11.362;2023-11-21T16:43:59;16.03;;;10.23;;
18076;SDS011;9165;45.714;11.362;2023-11-21T16:46:26;17.77;;;10.53;;
18076;SDS011;9165;45.714;11.362;2023-11-21T16:48:53;15.50;;;10.10;;
18076;SDS011;9165;45.714;11.362;2023-11-21T16:51:20;20.73;;;10.93;;
18076;SDS011;9165;45.714;11.362;2023-11-21T16:53:47;19.50;;;12.33;;
18076;SDS011;9165;45.714;11.362;2023-11-21T16:56:13;21.80;;;13.23;;
18076;SDS011;9165;45.714;11.362;2023-11-21T16:58:40;22.07;;;13.23;;
18076;SDS011;9165;45.714;11.362;2023-11-21T17:01:10;20.23;;;12.43;;
18076;SDS011;9165;45.714;11.362;2023-11-21T17:03:36;18.70;;;12.53;;
18076;SDS011;9165;45.714;11.362;2023-11-21T17:06:05;24.43;;;14.63;;
18076;SDS011;9165;45.714;11.362;2023-11-21T17:08:31;23.40;;;15.03;;
18076;SDS011;9165;45.714;11.362;2023-11-21T17:10:58;20.00;;;12.90;;
18076;SDS011;9165;45.714;11.362;2023-11-21T17:13:25;21.03;;;13.80;;
18076;SDS011;9165;45.714;11.362;2023-11-21T17:15:51;23.97;;;15.07;;
18076;SDS011;9165;45.714;11.362;2023-11-21T17:18:19;26.03;;;17.43;;
18076;SDS011;9165;45.714;11.362;2023-11-21T17:20:47;26.37;;;15.17;;
18076;SDS011;9165;45.714;11.362;2023-11-21T17:23:13;22.97;;;14.63;;
18076;SDS011;9165;45.714;11.362;2023-11-21T17:25:40;19.83;;;12.07;;
18076;SDS011;9165;45.714;11.362;2023-11-21T17:28:07;20.70;;;13.40;;
18076;SDS011;9165;45.714;11.362;2023-11-21T17:30:33;21.00;;;13.70;;
18076;SDS011;9165;45.714;11.362;2023-11-21T17:33:00;20.10;;;11.40;;
18076;SDS011;9165;45.714;11.362;2023-11-21T17:35:28;16.43;;;10.83;;
18076;SDS011;9165;45.714;11.362;2023-11-21T17:37:55;13.43;;;9.33;;
18076;SDS011;9165;45.714;11.362;2023-11-21T17:40:27;11.07;;;7.70;;
18076;SDS011;9165;45.714;11.362;2023-11-21T17:42:53;12.27;;;8.73;;
18076;SDS011;9165;45.714;11.362;2023-11-21T17:45:21;15.63;;;9.00;;
18076;SDS011;9165;45.714;11.362;2023-11-21T17:47:47;14.73;;;9.37;;
18076;SDS011;9165;45.714;11.362;2023-11-21T17:50:14;13.53;;;9.63;;
18076;SDS011;9165;45.714;11.362;2023-11-21T17:52:43;13.03;;;9.07;;
18076;SDS011;9165;45.714;11.362;2023-11-21T17:55:12;10.83;;;8.43;;
18076;SDS011;9165;45.714;11.362;2023-11-21T17:57:38;13.77;;;9.60;;
18076;SDS011;9165;45.714;11.362;2023-11-21T18:00:07;11.60;;;7.87;;
18076;SDS011;9165;45.714;11.362;2023-11-21T18:02:36;8.97;;;6.93;;
18076;SDS011;9165;45.714;11.362;2023-11-21T18:05:04;12.70;;;7.03;;
18076;SDS011;9165;45.714;11.362;2023-11-21T18:07:36;12.13;;;7.37;;
18076;SDS011;9165;45.714;11.362;2023-11-21T18:10:04;9.97;;;8.40;;
18076;SDS011;9165;45.714;11.362;2023-11-21T18:12:32;8.27;;;6.07;;
18076;SDS011;9165;45.714;11.362;2023-11-21T18:14:59;9.07;;;6.30;;
18076;SDS011;9165;45.714;11.362;2023-11-21T18:17:25;11.70;;;6.23;;
18076;SDS011;9165;45.714;11.362;2023-11-21T18:19:52;9.50;;;5.73;;
18076;SDS011;9165;45.714;11.362;2023-11-21T18:22:20;7.77;;;5.30;;
18076;SDS011;9165;45.714;11.362;2023-11-21T18:24:48;11.63;;;6.37;;
18076;SDS011;9165;45.714;11.362;2023-11-21T18:27:16;7.20;;;5.17;;
18076;SDS011;9165;45.714;11.362;2023-11-21T18:29:45;8.57;;;5.03;;
18076;SDS011;9165;45.714;11.362;2023-11-21T18:32:13;6.80;;;4.33;;
18076;SDS011;9165;45.714;11.362;2023-11-21T18:34:40;8.13;;;5.07;;
18076;SDS011;9165;45.714;11.362;2023-11-21T18:37:07;10.73;;;5.10;;
18076;SDS011;9165;45.714;11.362;2023-11-21T18:39:33;8.30;;;5.63;;
18076;SDS011;9165;45.714;11.362;2023-11-21T18:42:00;8.10;;;4.10;;
18076;SDS011;9165;45.714;11.362;2023-11-21T18:44:29;5.20;;;3.80;;
18076;SDS011;9165;45.714;11.362;2023-11-21T18:46:57;7.30;;;4.47;;
18076;SDS011;9165;45.714;11.362;2023-11-21T18:49:23;8.30;;;4.80;;
18076;SDS011;9165;45.714;11.362;2023-11-21T18:51:52;9.27;;;5.37;;
18076;SDS011;9165;45.714;11.362;2023-11-21T18:54:19;7.90;;;5.63;;
18076;SDS011;9165;45.714;11.362;2023-11-21T18:56:46;6.17;;;4.43;;
18076;SDS011;9165;45.714;11.362;2023-11-21T18:59:13;4.83;;;3.60;;
18076;SDS011;9165;45.714;11.362;2023-11-21T19:01:41;8.83;;;4.10;;
18076;SDS011;9165;45.714;11.362;2023-11-21T19:04:09;6.23;;;4.10;;
18076;SDS011;9165;45.714;11.362;2023-11-21T19:06:36;6.80;;;4.47;;
18076;SDS011;9165;45.714;11.362;2023-11-21T19:09:02;7.27;;;4.20;;
18076;SDS011;9165;45.714;11.362;2023-11-21T19:11:29;6.07;;;4.47;;
18076;SDS011;9165;45.714;11.362;2023-11-21T19:13:56;5.43;;;4.10;;
18076;SDS011;9165;45.714;11.362;2023-11-21T19:16:22;7.30;;;4.27;;
18076;SDS011;9165;45.714;11.362;2023-11-21T19:18:52;8.10;;;5.27;;
18076;SDS011;9165;45.714;11.362;2023-11-21T19:21:19;10.83;;;6.53;;
18076;SDS011;9165;45.714;11.362;2023-11-21T19:23:46;11.60;;;6.47;;
18076;SDS011;9165;45.714;11.362;2023-11-21T19:26:13;12.37;;;6.60;;
18076;SDS011;9165;45.714;11.362;2023-11-21T19:28:40;8.50;;;5.33;;
18076;SDS011;9165;45.714;11.362;2023-11-21T19:31:14;7.53;;;4.83;;
18076;SDS011;9165;45.714;11.362;2023-11-21T19:33:40;11.27;;;4.77;;
18076;SDS011;9165;45.714;11.362;2023-11-21T19:36:08;6.83;;;4.77;;
18076;SDS011;9165;45.714;11.362;2023-11-21T19:38:35;7.47;;;4.70;;
18076;SDS011;9165;45.714;11.362;2023-11-21T19:41:02;9.13;;;5.60;;
18076;SDS011;9165;45.714;11.362;2023-11-21T19:43:31;7.43;;;5.17;;
18076;SDS011;9165;45.714;11.362;2023-11-21T19:45:58;8.33;;;5.07;;
18076;SDS011;9165;45.714;11.362;2023-11-21T19:48:25;8.57;;;5.57;;
18076;SDS011;9165;45.714;11.362;2023-11-21T19:50:51;7.17;;;4.80;;
18076;SDS011;9165;45.714;11.362;2023-11-21T19:53:19;7.07;;;4.30;;
18076;SDS011;9165;45.714;11.362;2023-11-21T19:55:46;6.33;;;4.10;;
18076;SDS011;9165;45.714;11.362;2023-11-21T19:58:12;6.50;;;4.37;;
18076;SDS011;9165;45.714;11.362;2023-11-21T20:00:43;12.10;;;7.27;;
18076;SDS011;9165;45.714;11.362;2023-11-21T20:03:13;4.57;;;3.97;;
18076;SDS011;9165;45.714;11.362;2023-11-21T20:05:43;5.67;;;4.20;;
18076;SDS011;9165;45.714;11.362;2023-11-21T20:08:09;5.17;;;4.23;;
18076;SDS011;9165;45.714;11.362;2023-11-21T20:10:37;6.50;;;4.23;;
18076;SDS011;9165;45.714;11.362;2023-11-21T20:13:06;7.43;;;4.50;;
18076;SDS011;9165;45.714;11.362;2023-11-21T20:15:33;8.10;;;4.63;;
18076;SDS011;9165;45.714;11.362;2023-11-21T20:17:59;7.53;;;4.87;;
18076;SDS011;9165;45.714;11.362;2023-11-21T20:20:26;7.77;;;4.30;;